sensor_id;sensor_type;location;lat;lon;timestamp;pressure;altitude;pressure_sealevel;temperature;humidity
17950;BME280;9100;48.700;9.316;2023-11-21T00:00:15;96966.5;;;9.1;100
17950;BME280;9100;48.700;9.316;2023-11-21T00:01:15;96967.4;;;9.09;100
17950;BME280;9100;48.700;9.316;2023-11-21T00:02:15;96967.6;;;9.07;100
17950;BME280;9100;48.700;9.316;2023-11-21T00:03:15;96971.90000000001;;;9.07;100
17950;BME280;9100;48.700;9.316;2023-11-21T00:04:03;96966.2;;;9.05;100
17950;BME280;9100;48.700;9.316;2023-11-21T00:04:15;96963.7;;;9.05;100
17950;BME280;9100;48.700;9.316;2023-11-21T00:05:15;96962.90000000001;;;9.04;100
17950;BME280;9100;48.700;9.316;2023-11-21T00:06:15;96969;;;9.03;100
17950;BME280;9100;48.700;9.316;2023-11-21T00:07:15;96963.09999999999;;;9.03;100
17950;BME280;9100;48.700;9.316;2023-11-21T00:08:15;96963.09999999999;;;9.03;100
17950;BME280;9100;48.700;9.316;2023-11-21T00:09:02;96956.4;;;9.02;100
17950;BME280;9100;48.700;9.316;2023-11-21T00:09:15;96959.90000000001;;;9.01;100
17950;BME280;9100;48.700;9.316;2023-11-21T00:10:15;96954.8;;;9.01;100
17950;BME280;9100;48.700;9.316;2023-11-21T00:11:15;96958.4;;;9;100
17950;BME280;9100;48.700;9.316;2023-11-21T00:12:15;96954;;;9;100
17950;BME280;9100;48.700;9.316;2023-11-21T00:13:15;96955.6;;;9.01;100
17950;BME280;9100;48.700;9.316;2023-11-21T00:14:02;96954.8;;;9.01;100
17950;BME280;9100;48.700;9.316;2023-11-21T00:14:15;96955.6;;;9.01;100
17950;BME280;9100;48.700;9.316;2023-11-21T00:15:15;96951.3;;;9.02;100
17950;BME280;9100;48.700;9.316;2023-11-21T00:16:15;96949.40000000001;;;9.04;100
17950;BME280;9100;48.700;9.316;2023-11-21T00:17:15;96950.2;;;9.04;100
17950;BME280;9100;48.700;9.316;2023-11-21T00:18:15;96944.3;;;9.04;100
17950;BME280;9100;48.700;9.316;2023-11-21T00:19:02;96947.79999999999;;;9.03;100
17950;BME280;9100;48.700;9.316;2023-11-21T00:19:15;96944.3;;;9.04;100
17950;BME280;9100;48.700;9.316;2023-11-21T00:20:15;96945.1;;;9.04;100
17950;BME280;9100;48.700;9.316;2023-11-21T00:21:15;96945.8;;;9.05;100
17950;BME280;9100;48.700;9.316;2023-11-21T00:22:15;96942.3;;;9.06;100
17950;BME280;9100;48.700;9.316;2023-11-21T00:23:15;96945.8;;;9.05;100
17950;BME280;9100;48.700;9.316;2023-11-21T00:24:02;96933.3;;;9.03;100
17950;BME280;9100;48.700;9.316;2023-11-21T00:24:15;96934.90000000001;;;9.04;100
17950;BME280;9100;48.700;9.316;2023-11-21T00:25:15;96938.2;;;9.05;100
17950;BME280;9100;48.700;9.316;2023-11-21T00:26:15;96937.2;;;9.06;100
17950;BME280;9100;48.700;9.316;2023-11-21T00:27:15;96927.8;;;9.06;100
17950;BME280;9100;48.700;9.316;2023-11-21T00:28:15;96932.9;;;9.06;100
17950;BME280;9100;48.700;9.316;2023-11-21T00:29:02;96938.8;;;9.07;100
17950;BME280;9100;48.700;9.316;2023-11-21T00:29:15;96940.4;;;9.08;100
17950;BME280;9100;48.700;9.316;2023-11-21T00:30:15;96929.2;;;9.09;100
17950;BME280;9100;48.700;9.316;2023-11-21T00:31:15;96926.59999999999;;;9.09;100
17950;BME280;9100;48.700;9.316;2023-11-21T00:32:15;96936.7;;;9.1;100
17950;BME280;9100;48.700;9.316;2023-11-21T00:33:15;96930;;;9.09;100
17950;BME280;9100;48.700;9.316;2023-11-21T00:34:03;96933.3;;;9.1;100
17950;BME280;9100;48.700;9.316;2023-11-21T00:34:15;96930.8;;;9.1;100
17950;BME280;9100;48.700;9.316;2023-11-21T00:35:15;96934.1;;;9.1;100
17950;BME280;9100;48.700;9.316;2023-11-21T00:36:15;96936.5;;;9.12;100
17950;BME280;9100;48.700;9.316;2023-11-21T00:37:15;96926.3;;;9.12;100
17950;BME280;9100;48.700;9.316;2023-11-21T00:38:15;96926.9;;;9.14;100
17950;BME280;9100;48.700;9.316;2023-11-21T00:39:03;96929.4;;;9.14;100
17950;BME280;9100;48.700;9.316;2023-11-21T00:39:15;96929.4;;;9.14;100
17950;BME280;9100;48.700;9.316;2023-11-21T00:40:15;96928.5;;;9.15;100
17950;BME280;9100;48.700;9.316;2023-11-21T00:41:15;96929;;;9.17;100
17950;BME280;9100;48.700;9.316;2023-11-21T00:42:15;96931.4;;;9.18;100
17950;BME280;9100;48.700;9.316;2023-11-21T00:43:15;96922;;;9.19;100
17950;BME280;9100;48.700;9.316;2023-11-21T00:44:02;96922;;;9.19;100
17950;BME280;9100;48.700;9.316;2023-11-21T00:44:15;96920.2;;;9.19;100
17950;BME280;9100;48.700;9.316;2023-11-21T00:45:15;96917.3;;;9.22;100
17950;BME280;9100;48.700;9.316;2023-11-21T00:46:15;96917.1;;;9.24;100
17950;BME280;9100;48.700;9.316;2023-11-21T00:47:15;96927.09999999999;;;9.25;100
17950;BME280;9100;48.700;9.316;2023-11-21T00:48:15;96924.40000000001;;;9.27;100
17950;BME280;9100;48.700;9.316;2023-11-21T00:49:02;96928.7;;;9.27;100
17950;BME280;9100;48.700;9.316;2023-11-21T00:49:15;96926.3;;;9.25;100
17950;BME280;9100;48.700;9.316;2023-11-21T00:50:15;96933.8;;;9.27;100
17950;BME280;9100;48.700;9.316;2023-11-21T00:51:15;96924.59999999999;;;9.25;100
17950;BME280;9100;48.700;9.316;2023-11-21T00:52:15;96924.59999999999;;;9.25;100
17950;BME280;9100;48.700;9.316;2023-11-21T00:53:15;96926.9;;;9.27;100
17950;BME280;9100;48.700;9.316;2023-11-21T00:54:02;96921.3;;;9.25;100
17950;BME280;9100;48.700;9.316;2023-11-21T00:54:15;96924.40000000001;;;9.27;100
17950;BME280;9100;48.700;9.316;2023-11-21T00:55:15;96926.8;;;9.29;100
17950;BME280;9100;48.700;9.316;2023-11-21T00:56:15;96919.3;;;9.27;100
17950;BME280;9100;48.700;9.316;2023-11-21T00:57:15;96927.70000000001;;;9.28;100
17950;BME280;9100;48.700;9.316;2023-11-21T00:58:15;96921.8;;;9.27;100
17950;BME280;9100;48.700;9.316;2023-11-21T00:59:02;96929.5;;;9.27;100
17950;BME280;9100;48.700;9.316;2023-11-21T00:59:15;96920.3;;;9.26;100
17950;BME280;9100;48.700;9.316;2023-11-21T01:00:15;96924.40000000001;;;9.27;100
17950;BME280;9100;48.700;9.316;2023-11-21T01:01:15;96923.40000000001;;;9.28;100
17950;BME280;9100;48.700;9.316;2023-11-21T01:02:15;96926;;;9.28;100
17950;BME280;9100;48.700;9.316;2023-11-21T01:03:15;96908.90000000001;;;9.22;100
17950;BME280;9100;48.700;9.316;2023-11-21T01:04:03;96926;;;9.28;100
17950;BME280;9100;48.700;9.316;2023-11-21T01:04:15;96925.2;;;9.28;100
17950;BME280;9100;48.700;9.316;2023-11-21T01:05:15;96925.2;;;9.28;100
17950;BME280;9100;48.700;9.316;2023-11-21T01:06:15;96925.40000000001;;;9.26;100
17950;BME280;9100;48.700;9.316;2023-11-21T01:07:15;96927.9;;;9.26;100
17950;BME280;9100;48.700;9.316;2023-11-21T01:08:15;96925.59999999999;;;9.24;100
17950;BME280;9100;48.700;9.316;2023-11-21T01:09:02;96929.9;;;9.24;100
17950;BME280;9100;48.700;9.316;2023-11-21T01:09:15;96923.2;;;9.23;100
17950;BME280;9100;48.700;9.316;2023-11-21T01:10:15;96932.4;;;9.24;100
17950;BME280;9100;48.700;9.316;2023-11-21T01:11:15;96933.2;;;9.24;100
17950;BME280;9100;48.700;9.316;2023-11-21T01:12:15;96932.4;;;9.24;100
17950;BME280;9100;48.700;9.316;2023-11-21T01:13:15;96932.6;;;9.22;100
17950;BME280;9100;48.700;9.316;2023-11-21T01:14:03;96928.7;;;9.2;100
17950;BME280;9100;48.700;9.316;2023-11-21T01:14:15;96926.09999999999;;;9.2;100
17950;BME280;9100;48.700;9.316;2023-11-21T01:15:15;96936.3;;;9.2;100
17950;BME280;9100;48.700;9.316;2023-11-21T01:16:15;96929.5;;;9.2;100
17950;BME280;9100;48.700;9.316;2023-11-21T01:17:15;96930.2;;;9.21;100
17950;BME280;9100;48.700;9.316;2023-11-21T01:18:15;96934.40000000001;;;9.22;100
17950;BME280;9100;48.700;9.316;2023-11-21T01:19:02;96932.6;;;9.22;100
17950;BME280;9100;48.700;9.316;2023-11-21T01:19:15;96927.5;;;9.22;100
17950;BME280;9100;48.700;9.316;2023-11-21T01:20:15;96935;;;9.24;100
17950;BME280;9100;48.700;9.316;2023-11-21T01:21:15;96931.4;;;9.25;100
17950;BME280;9100;48.700;9.316;2023-11-21T01:22:15;96934.6;;;9.27;100
17950;BME280;9100;48.700;9.316;2023-11-21T01:23:15;96935.40000000001;;;9.28;100
17950;BME280;9100;48.700;9.316;2023-11-21T01:24:03;96932.8;;;9.28;100
17950;BME280;9100;48.700;9.316;2023-11-21T01:24:15;96931.1;;;9.28;100
17950;BME280;9100;48.700;9.316;2023-11-21T01:25:15;96925.2;;;9.28;100
17950;BME280;9100;48.700;9.316;2023-11-21T01:26:15;96929.1;;;9.3;100
17950;BME280;9100;48.700;9.316;2023-11-21T01:27:15;96929.9;;;9.31;100
17950;BME280;9100;48.700;9.316;2023-11-21T01:28:15;96932.4;;;9.31;100
17950;BME280;9100;48.700;9.316;2023-11-21T01:29:02;96930.7;;;9.31;100
17950;BME280;9100;48.700;9.316;2023-11-21T01:29:15;96928.9;;;9.32;100
17950;BME280;9100;48.700;9.316;2023-11-21T01:30:15;96938;;;9.34;100
17950;BME280;9100;48.700;9.316;2023-11-21T01:31:15;96930.1;;;9.36;100
17950;BME280;9100;48.700;9.316;2023-11-21T01:32:15;96929.2;;;9.37;100
17950;BME280;9100;48.700;9.316;2023-11-21T01:33:15;96929;;;9.38;100
17950;BME280;9100;48.700;9.316;2023-11-21T01:34:02;96930;;;9.37;100
17950;BME280;9100;48.700;9.316;2023-11-21T01:34:15;96924.90000000001;;;9.37;100
17950;BME280;9100;48.700;9.316;2023-11-21T01:35:15;96926.59999999999;;;9.37;100
17950;BME280;9100;48.700;9.316;2023-11-21T01:36:15;96924.90000000001;;;9.37;100
17950;BME280;9100;48.700;9.316;2023-11-21T01:37:15;96927.4;;;9.37;100
17950;BME280;9100;48.700;9.316;2023-11-21T01:38:15;96924.90000000001;;;9.37;100
17950;BME280;9100;48.700;9.316;2023-11-21T01:39:03;96919.8;;;9.37;100
17950;BME280;9100;48.700;9.316;2023-11-21T01:39:15;96919;;;9.37;100
17950;BME280;9100;48.700;9.316;2023-11-21T01:40:15;96919.8;;;9.37;100
17950;BME280;9100;48.700;9.316;2023-11-21T01:41:15;96925.59999999999;;;9.38;100
17950;BME280;9100;48.700;9.316;2023-11-21T01:42:15;96919;;;9.37;100
17950;BME280;9100;48.700;9.316;2023-11-21T01:43:15;96915.59999999999;;;9.36;100
17950;BME280;9100;48.700;9.316;2023-11-21T01:44:03;96911.5;;;9.35;100
17950;BME280;9100;48.700;9.316;2023-11-21T01:44:15;96919.1;;;9.35;100
17950;BME280;9100;48.700;9.316;2023-11-21T01:45:15;96916.6;;;9.35;100
17950;BME280;9100;48.700;9.316;2023-11-21T01:46:15;96918.2;;;9.36;100
17950;BME280;9100;48.700;9.316;2023-11-21T01:47:15;96916.6;;;9.35;100
17950;BME280;9100;48.700;9.316;2023-11-21T01:48:15;96912.7;;;9.33;100
17950;BME280;9100;48.700;9.316;2023-11-21T01:49:02;96916;;;9.33;100
17950;BME280;9100;48.700;9.316;2023-11-21T01:49:15;96919.5;;;9.32;100
17950;BME280;9100;48.700;9.316;2023-11-21T01:50:15;96916;;;9.33;100
17950;BME280;9100;48.700;9.316;2023-11-21T01:51:15;96908.3;;;9.33;100
17950;BME280;9100;48.700;9.316;2023-11-21T01:52:15;96915.8;;;9.35;100
17950;BME280;9100;48.700;9.316;2023-11-21T01:53:15;96919.1;;;9.35;100
17950;BME280;9100;48.700;9.316;2023-11-21T01:54:03;96916.8;;;9.34;100
17950;BME280;9100;48.700;9.316;2023-11-21T01:54:15;96916.6;;;9.35;100
17950;BME280;9100;48.700;9.316;2023-11-21T01:55:16;96915;;;9.34;100
17950;BME280;9100;48.700;9.316;2023-11-21T01:56:15;96915.8;;;9.35;100
17950;BME280;9100;48.700;9.316;2023-11-21T01:57:15;96923.29999999999;;;9.36;100
17950;BME280;9100;48.700;9.316;2023-11-21T01:58:15;96925.8;;;9.36;100
17950;BME280;9100;48.700;9.316;2023-11-21T01:59:02;96918.2;;;9.36;100
17950;BME280;9100;48.700;9.316;2023-11-21T01:59:16;96927.4;;;9.37;100
17950;BME280;9100;48.700;9.316;2023-11-21T02:00:15;96926.4;;;9.38;100
17950;BME280;9100;48.700;9.316;2023-11-21T02:01:15;96920.5;;;9.38;100
17950;BME280;9100;48.700;9.316;2023-11-21T02:02:15;96921.1;;;9.4;100
17950;BME280;9100;48.700;9.316;2023-11-21T02:03:15;96932.1;;;9.4;100
17950;BME280;9100;48.700;9.316;2023-11-21T02:04:03;96929;;;9.38;100
17950;BME280;9100;48.700;9.316;2023-11-21T02:04:15;96933.1;;;9.39;100
17950;BME280;9100;48.700;9.316;2023-11-21T02:05:15;96931.5;;;9.38;100
17950;BME280;9100;48.700;9.316;2023-11-21T02:06:15;96933.1;;;9.39;100
17950;BME280;9100;48.700;9.316;2023-11-21T02:07:15;96926.8;;;9.42;100
17950;BME280;9100;48.700;9.316;2023-11-21T02:08:15;96933.5;;;9.43;100
17950;BME280;9100;48.700;9.316;2023-11-21T02:09:03;96935.29999999999;;;9.42;100
17950;BME280;9100;48.700;9.316;2023-11-21T02:09:15;96936.3;;;9.41;100
17950;BME280;9100;48.700;9.316;2023-11-21T02:10:15;96928.4;;;9.43;100
17950;BME280;9100;48.700;9.316;2023-11-21T02:11:15;96931.9;;;9.42;100
17950;BME280;9100;48.700;9.316;2023-11-21T02:12:15;96928.2;;;9.44;100
17950;BME280;9100;48.700;9.316;2023-11-21T02:13:15;96930.8;;;9.44;100
17950;BME280;9100;48.700;9.316;2023-11-21T02:14:02;96934.3;;;9.43;100
17950;BME280;9100;48.700;9.316;2023-11-21T02:14:15;96931.7;;;9.43;100
17950;BME280;9100;48.700;9.316;2023-11-21T02:15:15;96935.90000000001;;;9.44;100
17950;BME280;9100;48.700;9.316;2023-11-21T02:16:15;96936.5;;;9.46;100
17950;BME280;9100;48.700;9.316;2023-11-21T02:17:15;96936.5;;;9.46;100
17950;BME280;9100;48.700;9.316;2023-11-21T02:18:15;96934.7;;;9.47;100
17950;BME280;9100;48.700;9.316;2023-11-21T02:19:02;96941.4;;;9.48;100
17950;BME280;9100;48.700;9.316;2023-11-21T02:19:16;96934.7;;;9.47;100
17950;BME280;9100;48.700;9.316;2023-11-21T02:20:15;96936.3;;;9.48;100
17950;BME280;9100;48.700;9.316;2023-11-21T02:21:15;96937.90000000001;;;9.49;100
17950;BME280;9100;48.700;9.316;2023-11-21T02:22:15;96930.8;;;9.44;100
17950;BME280;9100;48.700;9.316;2023-11-21T02:23:15;96933.3;;;9.44;100
17950;BME280;9100;48.700;9.316;2023-11-21T02:24:02;96936.8;;;9.43;100
17950;BME280;9100;48.700;9.316;2023-11-21T02:24:15;96930.8;;;9.44;100
17950;BME280;9100;48.700;9.316;2023-11-21T02:25:15;96927.8;;;9.47;100
17950;BME280;9100;48.700;9.316;2023-11-21T02:26:15;96935.5;;;9.47;100
17950;BME280;9100;48.700;9.316;2023-11-21T02:27:15;96933.5;;;9.49;100
17950;BME280;9100;48.700;9.316;2023-11-21T02:28:15;96925.09999999999;;;9.49;100
17950;BME280;9100;48.700;9.316;2023-11-21T02:29:03;96930.4;;;9.47;100
17950;BME280;9100;48.700;9.316;2023-11-21T02:29:15;96932.8;;;9.49;100
17950;BME280;9100;48.700;9.316;2023-11-21T02:30:15;96930.4;;;9.47;100
17950;BME280;9100;48.700;9.316;2023-11-21T02:31:15;96936.3;;;9.48;100
17950;BME280;9100;48.700;9.316;2023-11-21T02:32:15;96937.90000000001;;;9.49;100
17950;BME280;9100;48.700;9.316;2023-11-21T02:33:15;96936.3;;;9.48;100
17950;BME280;9100;48.700;9.316;2023-11-21T02:34:02;96928.59999999999;;;9.48;100
17950;BME280;9100;48.700;9.316;2023-11-21T02:34:15;96931.2;;;9.48;100
17950;BME280;9100;48.700;9.316;2023-11-21T02:35:15;96934.7;;;9.47;100
17950;BME280;9100;48.700;9.316;2023-11-21T02:36:15;96932.9;;;9.47;100
17950;BME280;9100;48.700;9.316;2023-11-21T02:37:15;96935.5;;;9.47;100
17950;BME280;9100;48.700;9.316;2023-11-21T02:38:15;96935.5;;;9.47;100
17950;BME280;9100;48.700;9.316;2023-11-21T02:39:02;96931.4;;;9.46;100
17950;BME280;9100;48.700;9.316;2023-11-21T02:39:15;96936.5;;;9.46;100
17950;BME280;9100;48.700;9.316;2023-11-21T02:40:15;96942.2;;;9.48;100
17950;BME280;9100;48.700;9.316;2023-11-21T02:41:15;96937.09999999999;;;9.48;100
17950;BME280;9100;48.700;9.316;2023-11-21T02:42:15;96869.7;;;9.02;100
17950;BME280;9100;48.700;9.316;2023-11-21T02:43:15;96944.9;;;9.47;100
17950;BME280;9100;48.700;9.316;2023-11-21T02:44:03;96937.2;;;9.47;100
17950;BME280;9100;48.700;9.316;2023-11-21T02:44:15;96931.4;;;9.46;100
17950;BME280;9100;48.700;9.316;2023-11-21T02:45:15;96932;;;9.48;100
17950;BME280;9100;48.700;9.316;2023-11-21T02:46:15;96934.5;;;9.48;100
17950;BME280;9100;48.700;9.316;2023-11-21T02:47:15;96938.59999999999;;;9.49;100
17950;BME280;9100;48.700;9.316;2023-11-21T02:48:15;96932;;;9.48;100
17950;BME280;9100;48.700;9.316;2023-11-21T02:49:03;96938;;;9.47;100
17950;BME280;9100;48.700;9.316;2023-11-21T02:49:15;96937.09999999999;;;9.48;100
17950;BME280;9100;48.700;9.316;2023-11-21T02:50:15;96937.09999999999;;;9.48;100
17950;BME280;9100;48.700;9.316;2023-11-21T02:51:15;96935.5;;;9.47;100
17950;BME280;9100;48.700;9.316;2023-11-21T02:52:15;96935.90000000001;;;9.44;100
17950;BME280;9100;48.700;9.316;2023-11-21T02:53:15;96935.90000000001;;;9.44;100
17950;BME280;9100;48.700;9.316;2023-11-21T02:54:03;96932.7;;;9.42;100
17950;BME280;9100;48.700;9.316;2023-11-21T02:54:15;96935.29999999999;;;9.42;100
17950;BME280;9100;48.700;9.316;2023-11-21T02:55:15;96935.5;;;9.41;100
17950;BME280;9100;48.700;9.316;2023-11-21T02:56:15;96932.1;;;9.4;100
17950;BME280;9100;48.700;9.316;2023-11-21T02:57:15;96933.7;;;9.41;100
17950;BME280;9100;48.700;9.316;2023-11-21T02:58:15;96936.3;;;9.41;100
17950;BME280;9100;48.700;9.316;2023-11-21T02:59:02;96895.3;;;9.15;100
17950;BME280;9100;48.700;9.316;2023-11-21T02:59:15;96933.1;;;9.39;100
17950;BME280;9100;48.700;9.316;2023-11-21T03:00:15;96936.6;;;9.38;100
17950;BME280;9100;48.700;9.316;2023-11-21T03:01:15;96936;;;9.36;100
17950;BME280;9100;48.700;9.316;2023-11-21T03:02:15;96934.40000000001;;;9.35;100
17950;BME280;9100;48.700;9.316;2023-11-21T03:03:15;96943.1;;;9.34;100
17950;BME280;9100;48.700;9.316;2023-11-21T03:04:02;96936.2;;;9.35;100
17950;BME280;9100;48.700;9.316;2023-11-21T03:04:15;96939.5;;;9.35;100
17950;BME280;9100;48.700;9.316;2023-11-21T03:05:15;96947.40000000001;;;9.34;100
17950;BME280;9100;48.700;9.316;2023-11-21T03:06:15;96940.5;;;9.34;100
17950;BME280;9100;48.700;9.316;2023-11-21T03:07:15;96939.8;;;9.34;100
17950;BME280;9100;48.700;9.316;2023-11-21T03:08:15;96947.6;;;9.32;100
17950;BME280;9100;48.700;9.316;2023-11-21T03:09:02;96938.3;;;9.31;100
17950;BME280;9100;48.700;9.316;2023-11-21T03:09:15;96942.3;;;9.34;100
17950;BME280;9100;48.700;9.316;2023-11-21T03:10:15;96939.9;;;9.32;100
17950;BME280;9100;48.700;9.316;2023-11-21T03:11:15;96939;;;9.33;100
17950;BME280;9100;48.700;9.316;2023-11-21T03:12:15;96936.2;;;9.35;100
17950;BME280;9100;48.700;9.316;2023-11-21T03:13:15;96940.5;;;9.34;100
17950;BME280;9100;48.700;9.316;2023-11-21T03:14:02;96933.90000000001;;;9.33;100
17950;BME280;9100;48.700;9.316;2023-11-21T03:14:15;96941.5;;;9.33;100
17950;BME280;9100;48.700;9.316;2023-11-21T03:15:15;96937.2;;;9.34;100
17950;BME280;9100;48.700;9.316;2023-11-21T03:16:15;96949.2;;;9.33;100
17950;BME280;9100;48.700;9.316;2023-11-21T03:17:15;96938.2;;;9.33;100
17950;BME280;9100;48.700;9.316;2023-11-21T03:18:15;96948.5;;;9.31;100
17950;BME280;9100;48.700;9.316;2023-11-21T03:19:02;96947;;;9.3;100
17950;BME280;9100;48.700;9.316;2023-11-21T03:19:15;96942.7;;;9.31;100
17950;BME280;9100;48.700;9.316;2023-11-21T03:20:15;96939.3;;;9.3;100
17950;BME280;9100;48.700;9.316;2023-11-21T03:21:15;96940.9;;;9.31;100
17950;BME280;9100;48.700;9.316;2023-11-21T03:22:15;96943.4;;;9.31;100
17950;BME280;9100;48.700;9.316;2023-11-21T03:23:15;96943.6;;;9.3;100
17950;BME280;9100;48.700;9.316;2023-11-21T03:24:03;96948.7;;;9.3;100
17950;BME280;9100;48.700;9.316;2023-11-21T03:24:15;96943.8;;;9.28;100
17950;BME280;9100;48.700;9.316;2023-11-21T03:25:15;96945.4;;;9.29;100
17950;BME280;9100;48.700;9.316;2023-11-21T03:26:15;96948;;;9.29;100
17950;BME280;9100;48.700;9.316;2023-11-21T03:27:15;96943.8;;;9.28;100
17950;BME280;9100;48.700;9.316;2023-11-21T03:28:15;96951.5;;;9.28;100
17950;BME280;9100;48.700;9.316;2023-11-21T03:29:02;96948.29999999999;;;9.26;100
17950;BME280;9100;48.700;9.316;2023-11-21T03:29:15;96949.90000000001;;;9.27;100
17950;BME280;9100;48.700;9.316;2023-11-21T03:30:15;96955;;;9.27;100
17950;BME280;9100;48.700;9.316;2023-11-21T03:31:15;96946.40000000001;;;9.28;100
17950;BME280;9100;48.700;9.316;2023-11-21T03:32:15;96951.5;;;9.28;100
17950;BME280;9100;48.700;9.316;2023-11-21T03:33:15;96954.4;;;9.25;100
17950;BME280;9100;48.700;9.316;2023-11-21T03:34:02;96952.59999999999;;;9.25;100
17950;BME280;9100;48.700;9.316;2023-11-21T03:34:16;96956.2;;;9.24;100
17950;BME280;9100;48.700;9.316;2023-11-21T03:35:15;96952.8;;;9.24;100
17950;BME280;9100;48.700;9.316;2023-11-21T03:36:15;96958.7;;;9.24;100
17950;BME280;9100;48.700;9.316;2023-11-21T03:37:15;96955.4;;;9.24;100
17950;BME280;9100;48.700;9.316;2023-11-21T03:38:15;96954.6;;;9.23;100
17950;BME280;9100;48.700;9.316;2023-11-21T03:39:02;96956.2;;;9.24;100
17950;BME280;9100;48.700;9.316;2023-11-21T03:39:15;96955.4;;;9.24;100
17950;BME280;9100;48.700;9.316;2023-11-21T03:40:15;96957;;;9.25;100
17950;BME280;9100;48.700;9.316;2023-11-21T03:41:15;96957.5;;;9.27;100
17950;BME280;9100;48.700;9.316;2023-11-21T03:42:15;96960.1;;;9.27;100
17950;BME280;9100;48.700;9.316;2023-11-21T03:43:15;96950.7;;;9.28;100
17950;BME280;9100;48.700;9.316;2023-11-21T03:44:02;96963.59999999999;;;9.26;100
17950;BME280;9100;48.700;9.316;2023-11-21T03:44:15;96958.5;;;9.26;100
17950;BME280;9100;48.700;9.316;2023-11-21T03:45:15;96962.59999999999;;;9.27;100
17950;BME280;9100;48.700;9.316;2023-11-21T03:46:15;96963.3;;;9.29;100
17950;BME280;9100;48.700;9.316;2023-11-21T03:47:15;96959.1;;;9.28;100
17950;BME280;9100;48.700;9.316;2023-11-21T03:48:15;96964.20000000001;;;9.28;100
17950;BME280;9100;48.700;9.316;2023-11-21T03:49:02;96960.1;;;9.27;100
17950;BME280;9100;48.700;9.316;2023-11-21T03:49:15;96962.5;;;9.29;100
17950;BME280;9100;48.700;9.316;2023-11-21T03:50:15;96968.4;;;9.29;100
17950;BME280;9100;48.700;9.316;2023-11-21T03:51:15;96964.8;;;9.3;100
17950;BME280;9100;48.700;9.316;2023-11-21T03:52:15;96963.8;;;9.31;100
17950;BME280;9100;48.700;9.316;2023-11-21T03:53:15;96962.09999999999;;;9.32;100
17950;BME280;9100;48.700;9.316;2023-11-21T03:54:03;96964.8;;;9.3;100
17950;BME280;9100;48.700;9.316;2023-11-21T03:54:15;96965.59999999999;;;9.31;100
17950;BME280;9100;48.700;9.316;2023-11-21T03:55:15;96958;;;9.31;100
17950;BME280;9100;48.700;9.316;2023-11-21T03:56:15;96970;;;9.3;100
17950;BME280;9100;48.700;9.316;2023-11-21T03:57:15;96969;;;9.31;100
17950;BME280;9100;48.700;9.316;2023-11-21T03:58:15;96957;;;9.32;100
17950;BME280;9100;48.700;9.316;2023-11-21T03:59:02;96966.4;;;9.31;100
17950;BME280;9100;48.700;9.316;2023-11-21T03:59:15;96966.4;;;9.31;100
17950;BME280;9100;48.700;9.316;2023-11-21T04:00:15;96965.4;;;9.32;100
17950;BME280;9100;48.700;9.316;2023-11-21T04:01:19;96962.90000000001;;;9.32;100
17950;BME280;9100;48.700;9.316;2023-11-21T04:02:15;96957.8;;;9.32;100
17950;BME280;9100;48.700;9.316;2023-11-21T04:03:15;96954.3;;;9.33;100
17950;BME280;9100;48.700;9.316;2023-11-21T04:04:02;96957.8;;;9.32;100
17950;BME280;9100;48.700;9.316;2023-11-21T04:04:15;96954.3;;;9.33;100
17950;BME280;9100;48.700;9.316;2023-11-21T04:05:15;96957.6;;;9.34;100
17950;BME280;9100;48.700;9.316;2023-11-21T04:06:15;96951.70000000001;;;9.33;100
17950;BME280;9100;48.700;9.316;2023-11-21T04:07:15;96956.8;;;9.33;100
17950;BME280;9100;48.700;9.316;2023-11-21T04:08:15;96953.5;;;9.33;100
17950;BME280;9100;48.700;9.316;2023-11-21T04:09:02;96954.3;;;9.33;100
17950;BME280;9100;48.700;9.316;2023-11-21T04:09:15;96956.8;;;9.33;100
17950;BME280;9100;48.700;9.316;2023-11-21T04:10:15;96957.8;;;9.32;100
17950;BME280;9100;48.700;9.316;2023-11-21T04:11:15;96957.6;;;9.34;100
17950;BME280;9100;48.700;9.316;2023-11-21T04:12:15;96954.3;;;9.33;100
17950;BME280;9100;48.700;9.316;2023-11-21T04:13:15;96956.8;;;9.33;100
17950;BME280;9100;48.700;9.316;2023-11-21T04:14:02;96958.6;;;9.33;100
17950;BME280;9100;48.700;9.316;2023-11-21T04:14:15;96964.5;;;9.33;100
17950;BME280;9100;48.700;9.316;2023-11-21T04:15:15;96961.7;;;9.35;100
17950;BME280;9100;48.700;9.316;2023-11-21T04:16:15;96957.8;;;9.32;100
17950;BME280;9100;48.700;9.316;2023-11-21T04:17:17;96969.6;;;9.33;100
17950;BME280;9100;48.700;9.316;2023-11-21T04:18:15;96968.8;;;9.33;100
17950;BME280;9100;48.700;9.316;2023-11-21T04:19:03;96957.8;;;9.32;100
17950;BME280;9100;48.700;9.316;2023-11-21T04:19:15;96965.59999999999;;;9.31;100
17950;BME280;9100;48.700;9.316;2023-11-21T04:20:15;96968.8;;;9.33;100
17950;BME280;9100;48.700;9.316;2023-11-21T04:21:15;96968.8;;;9.33;100
17950;BME280;9100;48.700;9.316;2023-11-21T04:22:15;96968;;;9.32;100
17950;BME280;9100;48.700;9.316;2023-11-21T04:23:15;96971.5;;;9.31;100
17950;BME280;9100;48.700;9.316;2023-11-21T04:24:02;96969.3;;;9.28;100
17950;BME280;9100;48.700;9.316;2023-11-21T04:24:15;96967.6;;;9.29;100
17950;BME280;9100;48.700;9.316;2023-11-21T04:25:15;96975.2;;;9.29;100
17950;BME280;9100;48.700;9.316;2023-11-21T04:26:15;96975;;;9.3;100
17950;BME280;9100;48.700;9.316;2023-11-21T04:27:15;96976.59999999999;;;9.31;100
17950;BME280;9100;48.700;9.316;2023-11-21T04:28:15;96974.8;;;9.32;100
17950;BME280;9100;48.700;9.316;2023-11-21T04:29:02;96973.1;;;9.32;100
17950;BME280;9100;48.700;9.316;2023-11-21T04:29:15;96975.59999999999;;;9.32;100
17950;BME280;9100;48.700;9.316;2023-11-21T04:30:15;96970.5;;;9.32;100
17950;BME280;9100;48.700;9.316;2023-11-21T04:31:15;96972.29999999999;;;9.32;100
17950;BME280;9100;48.700;9.316;2023-11-21T04:32:15;96969.6;;;9.33;100
17950;BME280;9100;48.700;9.316;2023-11-21T04:33:15;96976.3;;;9.34;100
17950;BME280;9100;48.700;9.316;2023-11-21T04:34:02;96972.1;;;9.33;100
17950;BME280;9100;48.700;9.316;2023-11-21T04:34:15;96972.1;;;9.33;100
17950;BME280;9100;48.700;9.316;2023-11-21T04:35:15;96968.8;;;9.33;100
17950;BME280;9100;48.700;9.316;2023-11-21T04:36:15;96979.8;;;9.33;100
17950;BME280;9100;48.700;9.316;2023-11-21T04:37:15;96971.90000000001;;;9.35;100